sensor_id;sensor_type;location;lat;lon;timestamp;P1;durP1;ratioP1;P2;durP2;ratioP2
50379;SDS011;37474;59.468;18.040;2022-12-18T00:01:29;27.17;;;14.15;;
50379;SDS011;37474;59.468;18.040;2022-12-18T00:03:59;23.53;;;13.27;;
50379;SDS011;37474;59.468;18.040;2022-12-18T00:06:29;25.33;;;14.10;;
50379;SDS011;37474;59.468;18.040;2022-12-18T00:08:59;28.50;;;14.15;;
50379;SDS011;37474;59.468;18.040;2022-12-18T00:11:28;26.20;;;14.37;;
50379;SDS011;37474;59.468;18.040;2022-12-18T00:13:58;27.75;;;14.65;;
50379;SDS011;37474;59.468;18.040;2022-12-18T00:16:28;29.48;;;14.50;;
50379;SDS011;37474;59.468;18.040;2022-12-18T00:18:59;38.30;;;16.40;;
50379;SDS011;37474;59.468;18.040;2022-12-18T00:21:28;28.50;;;13.73;;
50379;SDS011;37474;59.468;18.040;2022-12-18T00:23:57;28.57;;;15.00;;
50379;SDS011;37474;59.468;18.040;2022-12-18T00:26:27;33.00;;;15.50;;
50379;SDS011;37474;59.468;18.040;2022-12-18T00:28:58;29.92;;;14.85;;
50379;SDS011;37474;59.468;18.040;2022-12-18T00:31:29;31.33;;;15.40;;
50379;SDS011;37474;59.468;18.040;2022-12-18T00:33:57;29.30;;;14.25;;
50379;SDS011;37474;59.468;18.040;2022-12-18T00:36:27;30.07;;;15.43;;
50379;SDS011;37474;59.468;18.040;2022-12-18T00:38:57;29.80;;;14.32;;
50379;SDS011;37474;59.468;18.040;2022-12-18T00:41:25;30.55;;;14.15;;
50379;SDS011;37474;59.468;18.040;2022-12-18T00:44:13;26.30;;;14.53;;
50379;SDS011;37474;59.468;18.040;2022-12-18T00:46:43;27.73;;;13.70;;
50379;SDS011;37474;59.468;18.040;2022-12-18T00:49:13;28.33;;;14.47;;
50379;SDS011;37474;59.468;18.040;2022-12-18T00:51:42;28.13;;;14.00;;
50379;SDS011;37474;59.468;18.040;2022-12-18T00:54:10;28.13;;;14.33;;
50379;SDS011;37474;59.468;18.040;2022-12-18T00:56:39;25.40;;;13.73;;
50379;SDS011;37474;59.468;18.040;2022-12-18T00:59:15;28.37;;;14.10;;
50379;SDS011;37474;59.468;18.040;2022-12-18T01:01:45;31.20;;;15.20;;
50379;SDS011;37474;59.468;18.040;2022-12-18T01:04:14;27.13;;;13.93;;
50379;SDS011;37474;59.468;18.040;2022-12-18T01:06:42;26.70;;;14.27;;
50379;SDS011;37474;59.468;18.040;2022-12-18T01:09:10;31.23;;;14.27;;
50379;SDS011;37474;59.468;18.040;2022-12-18T01:11:38;31.00;;;14.97;;
50379;SDS011;37474;59.468;18.040;2022-12-18T01:14:06;25.17;;;13.60;;
50379;SDS011;37474;59.468;18.040;2022-12-18T01:16:34;29.23;;;14.43;;
50379;SDS011;37474;59.468;18.040;2022-12-18T01:19:03;30.67;;;14.27;;
50379;SDS011;37474;59.468;18.040;2022-12-18T01:21:31;26.67;;;13.32;;
50379;SDS011;37474;59.468;18.040;2022-12-18T01:24:00;26.97;;;13.80;;
50379;SDS011;37474;59.468;18.040;2022-12-18T01:26:28;24.83;;;12.87;;
50379;SDS011;37474;59.468;18.040;2022-12-18T01:28:57;24.53;;;13.43;;
50379;SDS011;37474;59.468;18.040;2022-12-18T01:31:26;27.93;;;13.37;;
50379;SDS011;37474;59.468;18.040;2022-12-18T01:36:26;22.70;;;11.77;;
50379;SDS011;37474;59.468;18.040;2022-12-18T01:38:55;23.23;;;12.37;;
50379;SDS011;37474;59.468;18.040;2022-12-18T01:41:25;25.70;;;12.77;;
50379;SDS011;37474;59.468;18.040;2022-12-18T01:47:21;24.13;;;12.27;;
50379;SDS011;37474;59.468;18.040;2022-12-18T01:49:52;24.67;;;12.53;;
50379;SDS011;37474;59.468;18.040;2022-12-18T01:52:22;21.67;;;12.10;;
50379;SDS011;37474;59.468;18.040;2022-12-18T01:54:53;24.83;;;12.50;;
50379;SDS011;37474;59.468;18.040;2022-12-18T01:57:23;25.10;;;12.40;;
50379;SDS011;37474;59.468;18.040;2022-12-18T01:59:52;23.97;;;13.13;;
50379;SDS011;37474;59.468;18.040;2022-12-18T02:02:23;26.87;;;12.90;;
50379;SDS011;37474;59.468;18.040;2022-12-18T02:04:51;25.20;;;13.27;;
50379;SDS011;37474;59.468;18.040;2022-12-18T02:07:20;25.27;;;12.80;;
50379;SDS011;37474;59.468;18.040;2022-12-18T02:09:59;22.33;;;12.17;;
50379;SDS011;37474;59.468;18.040;2022-12-18T02:12:33;25.00;;;12.67;;
50379;SDS011;37474;59.468;18.040;2022-12-18T02:15:09;27.47;;;12.70;;
50379;SDS011;37474;59.468;18.040;2022-12-18T02:17:44;22.10;;;11.77;;
50379;SDS011;37474;59.468;18.040;2022-12-18T02:20:17;23.87;;;12.07;;
50379;SDS011;37474;59.468;18.040;2022-12-18T02:23:01;23.90;;;12.00;;
50379;SDS011;37474;59.468;18.040;2022-12-18T02:25:55;28.88;;;13.32;;
50379;SDS011;37474;59.468;18.040;2022-12-18T02:28:33;23.27;;;11.93;;
50379;SDS011;37474;59.468;18.040;2022-12-18T02:31:06;25.47;;;12.63;;
50379;SDS011;37474;59.468;18.040;2022-12-18T02:33:38;23.63;;;12.53;;
50379;SDS011;37474;59.468;18.040;2022-12-18T02:36:08;27.40;;;12.18;;
50379;SDS011;37474;59.468;18.040;2022-12-18T02:38:39;23.33;;;12.37;;
50379;SDS011;37474;59.468;18.040;2022-12-18T02:41:11;24.45;;;11.80;;
50379;SDS011;37474;59.468;18.040;2022-12-18T02:43:45;25.60;;;12.53;;
50379;SDS011;37474;59.468;18.040;2022-12-18T02:46:25;25.60;;;12.50;;
50379;SDS011;37474;59.468;18.040;2022-12-18T02:49:00;26.47;;;11.27;;
50379;SDS011;37474;59.468;18.040;2022-12-18T02:51:35;22.93;;;12.63;;
50379;SDS011;37474;59.468;18.040;2022-12-18T02:54:13;23.73;;;11.77;;
50379;SDS011;37474;59.468;18.040;2022-12-18T02:56:53;23.40;;;11.17;;
50379;SDS011;37474;59.468;18.040;2022-12-18T02:59:24;22.33;;;11.70;;
50379;SDS011;37474;59.468;18.040;2022-12-18T03:01:58;23.13;;;12.10;;
50379;SDS011;37474;59.468;18.040;2022-12-18T03:04:33;21.57;;;11.13;;
50379;SDS011;37474;59.468;18.040;2022-12-18T03:07:08;24.53;;;11.90;;
50379;SDS011;37474;59.468;18.040;2022-12-18T03:09:39;20.33;;;11.30;;
50379;SDS011;37474;59.468;18.040;2022-12-18T03:12:13;23.17;;;10.80;;
50379;SDS011;37474;59.468;18.040;2022-12-18T03:14:50;21.60;;;10.83;;
50379;SDS011;37474;59.468;18.040;2022-12-18T03:17:25;19.83;;;9.93;;
50379;SDS011;37474;59.468;18.040;2022-12-18T03:19:56;21.60;;;11.53;;
50379;SDS011;37474;59.468;18.040;2022-12-18T03:22:32;19.43;;;10.50;;
50379;SDS011;37474;59.468;18.040;2022-12-18T03:25:03;22.33;;;10.63;;
50379;SDS011;37474;59.468;18.040;2022-12-18T03:27:35;21.60;;;10.77;;
50379;SDS011;37474;59.468;18.040;2022-12-18T03:30:08;19.90;;;10.67;;
50379;SDS011;37474;59.468;18.040;2022-12-18T03:32:40;23.70;;;10.00;;
50379;SDS011;37474;59.468;18.040;2022-12-18T03:35:13;22.50;;;10.73;;
50379;SDS011;37474;59.468;18.040;2022-12-18T03:37:45;20.70;;;11.00;;
50379;SDS011;37474;59.468;18.040;2022-12-18T03:40:12;18.17;;;10.23;;
50379;SDS011;37474;59.468;18.040;2022-12-18T03:42:43;20.87;;;10.23;;
50379;SDS011;37474;59.468;18.040;2022-12-18T03:45:19;23.40;;;10.23;;
50379;SDS011;37474;59.468;18.040;2022-12-18T03:47:54;21.43;;;10.40;;
50379;SDS011;37474;59.468;18.040;2022-12-18T03:50:29;26.43;;;10.63;;
50379;SDS011;37474;59.468;18.040;2022-12-18T03:53:08;20.87;;;10.80;;
50379;SDS011;37474;59.468;18.040;2022-12-18T03:55:45;20.45;;;10.15;;
50379;SDS011;37474;59.468;18.040;2022-12-18T03:58:17;20.10;;;10.18;;
50379;SDS011;37474;59.468;18.040;2022-12-18T04:00:48;21.60;;;10.33;;
50379;SDS011;37474;59.468;18.040;2022-12-18T04:03:19;19.17;;;10.10;;
50379;SDS011;37474;59.468;18.040;2022-12-18T04:05:52;17.00;;;9.80;;
50379;SDS011;37474;59.468;18.040;2022-12-18T04:10:51;18.73;;;9.50;;
50379;SDS011;37474;59.468;18.040;2022-12-18T04:13:23;21.03;;;11.37;;
50379;SDS011;37474;59.468;18.040;2022-12-18T04:15:54;20.30;;;10.90;;
50379;SDS011;37474;59.468;18.040;2022-12-18T04:18:22;20.13;;;10.03;;
50379;SDS011;37474;59.468;18.040;2022-12-18T04:20:50;21.40;;;10.00;;
50379;SDS011;37474;59.468;18.040;2022-12-18T04:23:19;19.70;;;10.20;;
50379;SDS011;37474;59.468;18.040;2022-12-18T04:25:47;20.73;;;11.17;;
50379;SDS011;37474;59.468;18.040;2022-12-18T04:28:15;22.37;;;11.00;;
50379;SDS011;37474;59.468;18.040;2022-12-18T04:30:46;20.23;;;10.80;;
50379;SDS011;37474;59.468;18.040;2022-12-18T04:33:14;19.80;;;10.18;;
50379;SDS011;37474;59.468;18.040;2022-12-18T04:35:42;18.13;;;10.07;;
50379;SDS011;37474;59.468;18.040;2022-12-18T04:38:10;18.60;;;10.53;;
50379;SDS011;37474;59.468;18.040;2022-12-18T04:40:38;20.93;;;10.57;;
50379;SDS011;37474;59.468;18.040;2022-12-18T04:43:07;18.30;;;9.90;;
50379;SDS011;37474;59.468;18.040;2022-12-18T04:45:36;19.67;;;9.47;;
50379;SDS011;37474;59.468;18.040;2022-12-18T04:48:07;21.70;;;10.48;;
50379;SDS011;37474;59.468;18.040;2022-12-18T04:50:35;19.88;;;9.63;;
50379;SDS011;37474;59.468;18.040;2022-12-18T04:53:03;20.23;;;9.83;;
50379;SDS011;37474;59.468;18.040;2022-12-18T04:55:31;19.47;;;9.43;;
50379;SDS011;37474;59.468;18.040;2022-12-18T04:57:59;20.67;;;9.53;;
50379;SDS011;37474;59.468;18.040;2022-12-18T05:00:27;18.73;;;10.37;;
50379;SDS011;37474;59.468;18.040;2022-12-18T05:02:55;22.60;;;10.80;;
50379;SDS011;37474;59.468;18.040;2022-12-18T05:05:25;18.03;;;10.00;;
50379;SDS011;37474;59.468;18.040;2022-12-18T05:07:53;19.67;;;9.60;;
50379;SDS011;37474;59.468;18.040;2022-12-18T05:10:21;18.30;;;9.97;;
50379;SDS011;37474;59.468;18.040;2022-12-18T05:12:49;19.63;;;10.50;;
50379;SDS011;37474;59.468;18.040;2022-12-18T05:15:27;19.87;;;10.30;;
50379;SDS011;37474;59.468;18.040;2022-12-18T05:17:56;19.73;;;10.03;;
50379;SDS011;37474;59.468;18.040;2022-12-18T05:20:25;19.97;;;9.93;;
50379;SDS011;37474;59.468;18.040;2022-12-18T05:22:53;21.92;;;9.70;;
50379;SDS011;37474;59.468;18.040;2022-12-18T05:25:22;18.20;;;9.93;;
50379;SDS011;37474;59.468;18.040;2022-12-18T05:27:50;19.37;;;9.57;;
50379;SDS011;37474;59.468;18.040;2022-12-18T05:30:18;19.90;;;9.53;;
50379;SDS011;37474;59.468;18.040;2022-12-18T05:32:46;21.57;;;9.87;;
50379;SDS011;37474;59.468;18.040;2022-12-18T05:35:14;17.67;;;8.73;;
50379;SDS011;37474;59.468;18.040;2022-12-18T05:37:44;18.47;;;10.33;;
50379;SDS011;37474;59.468;18.040;2022-12-18T05:40:12;20.50;;;11.00;;
50379;SDS011;37474;59.468;18.040;2022-12-18T05:42:40;21.50;;;10.73;;
50379;SDS011;37474;59.468;18.040;2022-12-18T05:45:08;19.37;;;10.23;;
50379;SDS011;37474;59.468;18.040;2022-12-18T05:47:37;19.60;;;10.60;;
50379;SDS011;37474;59.468;18.040;2022-12-18T05:50:05;22.27;;;11.40;;
50379;SDS011;37474;59.468;18.040;2022-12-18T05:52:34;21.73;;;11.55;;
50379;SDS011;37474;59.468;18.040;2022-12-18T05:55:04;21.23;;;10.67;;
50379;SDS011;37474;59.468;18.040;2022-12-18T05:57:32;18.23;;;10.32;;
50379;SDS011;37474;59.468;18.040;2022-12-18T06:00:00;23.17;;;11.13;;
50379;SDS011;37474;59.468;18.040;2022-12-18T06:02:28;22.63;;;11.63;;
50379;SDS011;37474;59.468;18.040;2022-12-18T06:04:56;24.27;;;11.90;;
50379;SDS011;37474;59.468;18.040;2022-12-18T06:07:24;25.03;;;13.27;;
50379;SDS011;37474;59.468;18.040;2022-12-18T06:09:53;21.00;;;11.13;;
50379;SDS011;37474;59.468;18.040;2022-12-18T06:12:22;25.63;;;14.13;;
50379;SDS011;37474;59.468;18.040;2022-12-18T06:14:50;20.93;;;10.17;;
50379;SDS011;37474;59.468;18.040;2022-12-18T06:17:18;25.33;;;13.13;;
50379;SDS011;37474;59.468;18.040;2022-12-18T06:19:46;21.70;;;11.43;;
50379;SDS011;37474;59.468;18.040;2022-12-18T06:22:14;18.50;;;10.13;;
50379;SDS011;37474;59.468;18.040;2022-12-18T06:24:43;23.80;;;11.73;;
50379;SDS011;37474;59.468;18.040;2022-12-18T06:27:11;22.70;;;10.73;;
50379;SDS011;37474;59.468;18.040;2022-12-18T06:29:40;17.37;;;9.10;;
50379;SDS011;37474;59.468;18.040;2022-12-18T06:32:08;23.42;;;10.07;;
50379;SDS011;37474;59.468;18.040;2022-12-18T06:34:37;18.07;;;9.33;;
50379;SDS011;37474;59.468;18.040;2022-12-18T06:37:05;16.30;;;8.77;;
50379;SDS011;37474;59.468;18.040;2022-12-18T06:39:33;17.23;;;8.80;;
50379;SDS011;37474;59.468;18.040;2022-12-18T06:42:01;20.10;;;9.57;;
50379;SDS011;37474;59.468;18.040;2022-12-18T06:44:30;21.37;;;9.43;;
50379;SDS011;37474;59.468;18.040;2022-12-18T06:46:59;21.13;;;9.87;;
50379;SDS011;37474;59.468;18.040;2022-12-18T06:49:27;18.17;;;9.57;;
50379;SDS011;37474;59.468;18.040;2022-12-18T06:51:56;18.87;;;9.50;;
50379;SDS011;37474;59.468;18.040;2022-12-18T06:54:24;20.53;;;10.80;;
50379;SDS011;37474;59.468;18.040;2022-12-18T06:56:51;17.67;;;9.30;;
50379;SDS011;37474;59.468;18.040;2022-12-18T06:59:20;19.90;;;9.53;;
50379;SDS011;37474;59.468;18.040;2022-12-18T07:01:47;24.73;;;10.23;;
50379;SDS011;37474;59.468;18.040;2022-12-18T07:04:17;20.40;;;9.90;;
50379;SDS011;37474;59.468;18.040;2022-12-18T07:06:45;36.63;;;14.87;;
50379;SDS011;37474;59.468;18.040;2022-12-18T07:09:13;42.67;;;16.03;;
50379;SDS011;37474;59.468;18.040;2022-12-18T07:11:41;29.77;;;11.83;;
50379;SDS011;37474;59.468;18.040;2022-12-18T07:14:09;45.40;;;18.80;;
50379;SDS011;37474;59.468;18.040;2022-12-18T07:16:37;21.60;;;11.70;;
50379;SDS011;37474;59.468;18.040;2022-12-18T07:19:05;20.00;;;9.87;;
50379;SDS011;37474;59.468;18.040;2022-12-18T07:21:34;20.53;;;10.17;;
50379;SDS011;37474;59.468;18.040;2022-12-18T07:24:03;19.10;;;9.57;;
50379;SDS011;37474;59.468;18.040;2022-12-18T07:26:31;16.93;;;9.00;;
50379;SDS011;37474;59.468;18.040;2022-12-18T07:28:59;18.70;;;9.23;;
50379;SDS011;37474;59.468;18.040;2022-12-18T07:31:27;18.37;;;9.20;;
50379;SDS011;37474;59.468;18.040;2022-12-18T07:33:56;19.17;;;9.60;;
50379;SDS011;37474;59.468;18.040;2022-12-18T07:36:24;17.90;;;8.67;;
50379;SDS011;37474;59.468;18.040;2022-12-18T07:38:54;20.57;;;10.17;;
50379;SDS011;37474;59.468;18.040;2022-12-18T07:41:22;17.93;;;9.87;;
50379;SDS011;37474;59.468;18.040;2022-12-18T07:43:50;19.47;;;10.13;;
50379;SDS011;37474;59.468;18.040;2022-12-18T07:46:18;18.87;;;10.13;;
50379;SDS011;37474;59.468;18.040;2022-12-18T07:48:46;22.37;;;9.83;;
50379;SDS011;37474;59.468;18.040;2022-12-18T07:51:15;20.00;;;10.00;;
50379;SDS011;37474;59.468;18.040;2022-12-18T07:53:44;29.00;;;13.57;;
50379;SDS011;37474;59.468;18.040;2022-12-18T07:56:19;23.73;;;12.60;;
50379;SDS011;37474;59.468;18.040;2022-12-18T07:58:56;22.60;;;11.03;;
50379;SDS011;37474;59.468;18.040;2022-12-18T08:01:26;18.07;;;11.03;;
50379;SDS011;37474;59.468;18.040;2022-12-18T08:03:54;20.77;;;10.20;;
50379;SDS011;37474;59.468;18.040;2022-12-18T08:06:23;22.03;;;11.17;;
50379;SDS011;37474;59.468;18.040;2022-12-18T08:08:51;20.40;;;10.20;;
50379;SDS011;37474;59.468;18.040;2022-12-18T08:11:21;22.17;;;10.43;;
50379;SDS011;37474;59.468;18.040;2022-12-18T08:13:51;24.80;;;11.17;;
50379;SDS011;37474;59.468;18.040;2022-12-18T08:16:20;21.73;;;10.80;;
50379;SDS011;37474;59.468;18.040;2022-12-18T08:18:48;22.47;;;11.80;;
50379;SDS011;37474;59.468;18.040;2022-12-18T08:21:19;20.50;;;11.38;;
50379;SDS011;37474;59.468;18.040;2022-12-18T08:23:49;24.40;;;12.10;;
50379;SDS011;37474;59.468;18.040;2022-12-18T08:26:18;22.60;;;11.10;;
50379;SDS011;37474;59.468;18.040;2022-12-18T08:28:48;21.90;;;10.80;;
50379;SDS011;37474;59.468;18.040;2022-12-18T08:31:17;23.25;;;11.05;;
50379;SDS011;37474;59.468;18.040;2022-12-18T08:33:47;25.10;;;11.97;;
50379;SDS011;37474;59.468;18.040;2022-12-18T08:36:16;24.20;;;12.63;;
50379;SDS011;37474;59.468;18.040;2022-12-18T08:38:44;21.83;;;11.13;;
50379;SDS011;37474;59.468;18.040;2022-12-18T08:41:13;22.27;;;11.87;;
50379;SDS011;37474;59.468;18.040;2022-12-18T08:43:42;21.30;;;11.32;;
50379;SDS011;37474;59.468;18.040;2022-12-18T08:46:31;21.77;;;11.40;;
50379;SDS011;37474;59.468;18.040;2022-12-18T08:49:01;24.37;;;11.43;;
50379;SDS011;37474;59.468;18.040;2022-12-18T08:51:30;20.10;;;11.40;;
50379;SDS011;37474;59.468;18.040;2022-12-18T08:53:59;22.37;;;11.37;;
50379;SDS011;37474;59.468;18.040;2022-12-18T08:56:28;22.93;;;11.90;;
50379;SDS011;37474;59.468;18.040;2022-12-18T08:58:56;21.07;;;10.80;;
50379;SDS011;37474;59.468;18.040;2022-12-18T09:01:24;19.53;;;11.20;;
50379;SDS011;37474;59.468;18.040;2022-12-18T09:03:54;19.57;;;11.37;;
50379;SDS011;37474;59.468;18.040;2022-12-18T09:06:22;22.55;;;12.18;;
50379;SDS011;37474;59.468;18.040;2022-12-18T09:08:50;22.17;;;11.50;;
50379;SDS011;37474;59.468;18.040;2022-12-18T09:11:20;18.23;;;10.63;;
50379;SDS011;37474;59.468;18.040;2022-12-18T09:13:50;20.20;;;11.13;;
50379;SDS011;37474;59.468;18.040;2022-12-18T09:16:18;22.60;;;11.83;;
50379;SDS011;37474;59.468;18.040;2022-12-18T09:18:50;21.60;;;11.67;;
50379;SDS011;37474;59.468;18.040;2022-12-18T09:21:21;19.75;;;10.77;;
50379;SDS011;37474;59.468;18.040;2022-12-18T09:23:49;20.03;;;11.13;;
50379;SDS011;37474;59.468;18.040;2022-12-18T09:26:18;19.17;;;10.83;;
50379;SDS011;37474;59.468;18.040;2022-12-18T09:28:46;19.77;;;11.03;;
50379;SDS011;37474;59.468;18.040;2022-12-18T09:31:14;19.73;;;11.60;;
50379;SDS011;37474;59.468;18.040;2022-12-18T09:33:44;20.23;;;11.13;;
50379;SDS011;37474;59.468;18.040;2022-12-18T09:36:13;17.27;;;10.23;;
50379;SDS011;37474;59.468;18.040;2022-12-18T09:38:44;20.47;;;11.57;;
50379;SDS011;37474;59.468;18.040;2022-12-18T09:41:18;21.77;;;10.57;;
50379;SDS011;37474;59.468;18.040;2022-12-18T09:44:00;19.33;;;10.23;;
50379;SDS011;37474;59.468;18.040;2022-12-18T09:46:34;18.07;;;10.20;;
50379;SDS011;37474;59.468;18.040;2022-12-18T09:49:05;19.20;;;9.90;;
50379;SDS011;37474;59.468;18.040;2022-12-18T09:51:39;15.43;;;9.20;;
50379;SDS011;37474;59.468;18.040;2022-12-18T09:54:12;17.53;;;10.10;;
50379;SDS011;37474;59.468;18.040;2022-12-18T09:56:46;20.37;;;10.57;;
50379;SDS011;37474;59.468;18.040;2022-12-18T09:59:17;19.57;;;10.00;;
50379;SDS011;37474;59.468;18.040;2022-12-18T10:01:50;22.80;;;10.90;;
50379;SDS011;37474;59.468;18.040;2022-12-18T10:04:18;17.50;;;9.67;;
50379;SDS011;37474;59.468;18.040;2022-12-18T10:06:48;24.27;;;10.40;;
50379;SDS011;37474;59.468;18.040;2022-12-18T10:09:27;19.57;;;10.60;;
50379;SDS011;37474;59.468;18.040;2022-12-18T10:12:04;17.90;;;10.00;;
50379;SDS011;37474;59.468;18.040;2022-12-18T10:14:36;18.67;;;10.57;;
50379;SDS011;37474;59.468;18.040;2022-12-18T10:17:13;18.27;;;10.50;;
50379;SDS011;37474;59.468;18.040;2022-12-18T10:19:51;19.67;;;11.07;;
50379;SDS011;37474;59.468;18.040;2022-12-18T10:22:30;19.03;;;10.63;;
50379;SDS011;37474;59.468;18.040;2022-12-18T10:25:14;15.97;;;10.73;;
50379;SDS011;37474;59.468;18.040;2022-12-18T10:27:46;19.90;;;11.07;;
50379;SDS011;37474;59.468;18.040;2022-12-18T10:30:19;21.80;;;10.20;;
50379;SDS011;37474;59.468;18.040;2022-12-18T10:32:49;18.90;;;9.37;;
50379;SDS011;37474;59.468;18.040;2022-12-18T10:35:18;16.83;;;9.97;;
50379;SDS011;37474;59.468;18.040;2022-12-18T10:37:58;20.73;;;10.03;;
50379;SDS011;37474;59.468;18.040;2022-12-18T10:40:33;15.93;;;9.97;;
50379;SDS011;37474;59.468;18.040;2022-12-18T10:43:19;19.17;;;10.07;;
50379;SDS011;37474;59.468;18.040;2022-12-18T10:45:59;17.70;;;9.77;;
50379;SDS011;37474;59.468;18.040;2022-12-18T10:48:29;19.67;;;10.35;;
50379;SDS011;37474;59.468;18.040;2022-12-18T10:50:59;19.27;;;9.20;;
50379;SDS011;37474;59.468;18.040;2022-12-18T10:53:38;17.20;;;9.50;;
50379;SDS011;37474;59.468;18.040;2022-12-18T10:56:11;18.43;;;10.47;;
50379;SDS011;37474;59.468;18.040;2022-12-18T10:58:40;19.42;;;9.80;;
50379;SDS011;37474;59.468;18.040;2022-12-18T11:01:09;19.63;;;9.23;;
50379;SDS011;37474;59.468;18.040;2022-12-18T11:03:39;20.53;;;10.20;;
50379;SDS011;37474;59.468;18.040;2022-12-18T11:06:10;20.20;;;10.87;;
50379;SDS011;37474;59.468;18.040;2022-12-18T11:08:39;18.38;;;10.88;;
50379;SDS011;37474;59.468;18.040;2022-12-18T11:11:17;17.13;;;9.60;;
50379;SDS011;37474;59.468;18.040;2022-12-18T11:13:51;21.37;;;11.17;;
50379;SDS011;37474;59.468;18.040;2022-12-18T11:16:29;19.37;;;10.50;;
50379;SDS011;37474;59.468;18.040;2022-12-18T11:19:13;19.07;;;10.87;;
50379;SDS011;37474;59.468;18.040;2022-12-18T11:21:48;19.53;;;10.50;;
50379;SDS011;37474;59.468;18.040;2022-12-18T11:24:22;19.90;;;10.93;;
50379;SDS011;37474;59.468;18.040;2022-12-18T11:26:58;21.70;;;11.10;;
50379;SDS011;37474;59.468;18.040;2022-12-18T11:29:30;18.53;;;10.90;;
50379;SDS011;37474;59.468;18.040;2022-12-18T11:32:22;17.40;;;10.30;;
50379;SDS011;37474;59.468;18.040;2022-12-18T11:34:57;22.47;;;11.07;;
50379;SDS011;37474;59.468;18.040;2022-12-18T11:37:29;19.07;;;10.53;;
50379;SDS011;37474;59.468;18.040;2022-12-18T11:39:58;19.87;;;10.97;;
50379;SDS011;37474;59.468;18.040;2022-12-18T11:42:32;20.03;;;10.30;;
50379;SDS011;37474;59.468;18.040;2022-12-18T11:45:14;21.47;;;10.93;;
50379;SDS011;37474;59.468;18.040;2022-12-18T11:47:52;22.23;;;10.83;;
50379;SDS011;37474;59.468;18.040;2022-12-18T11:50:25;19.57;;;10.77;;
50379;SDS011;37474;59.468;18.040;2022-12-18T11:52:59;18.90;;;10.23;;
50379;SDS011;37474;59.468;18.040;2022-12-18T11:55:35;17.10;;;9.57;;
50379;SDS011;37474;59.468;18.040;2022-12-18T11:58:12;17.23;;;9.77;;
50379;SDS011;37474;59.468;18.040;2022-12-18T12:00:48;19.67;;;10.87;;
50379;SDS011;37474;59.468;18.040;2022-12-18T12:03:33;18.93;;;9.87;;
50379;SDS011;37474;59.468;18.040;2022-12-18T12:06:14;21.23;;;9.90;;
50379;SDS011;37474;59.468;18.040;2022-12-18T12:08:52;18.27;;;10.10;;
50379;SDS011;37474;59.468;18.040;2022-12-18T12:11:31;21.65;;;10.00;;
50379;SDS011;37474;59.468;18.040;2022-12-18T12:14:20;16.08;;;9.65;;
50379;SDS011;37474;59.468;18.040;2022-12-18T12:16:58;17.67;;;10.30;;
50379;SDS011;37474;59.468;18.040;2022-12-18T12:19:34;16.47;;;9.10;;
50379;SDS011;37474;59.468;18.040;2022-12-18T12:22:12;18.77;;;8.93;;
50379;SDS011;37474;59.468;18.040;2022-12-18T12:24:53;14.77;;;8.87;;
50379;SDS011;37474;59.468;18.040;2022-12-18T12:27:33;19.43;;;9.30;;
50379;SDS011;37474;59.468;18.040;2022-12-18T12:30:10;17.60;;;9.07;;
50379;SDS011;37474;59.468;18.040;2022-12-18T12:32:45;18.83;;;9.30;;
50379;SDS011;37474;59.468;18.040;2022-12-18T12:35:27;17.40;;;9.60;;
50379;SDS011;37474;59.468;18.040;2022-12-18T12:38:05;18.60;;;8.63;;
50379;SDS011;37474;59.468;18.040;2022-12-18T12:40:39;16.40;;;8.10;;
50379;SDS011;37474;59.468;18.040;2022-12-18T12:43:27;16.00;;;8.87;;
50379;SDS011;37474;59.468;18.040;2022-12-18T12:46:02;16.23;;;8.77;;
50379;SDS011;37474;59.468;18.040;2022-12-18T12:48:52;18.03;;;9.37;;
50379;SDS011;37474;59.468;18.040;2022-12-18T12:51:25;14.30;;;8.40;;
50379;SDS011;37474;59.468;18.040;2022-12-18T12:53:56;16.83;;;8.37;;
50379;SDS011;37474;59.468;18.040;2022-12-18T12:56:25;19.43;;;9.33;;
50379;SDS011;37474;59.468;18.040;2022-12-18T12:59:04;15.97;;;7.53;;
50379;SDS011;37474;59.468;18.040;2022-12-18T13:01:48;16.57;;;8.23;;
50379;SDS011;37474;59.468;18.040;2022-12-18T13:04:23;14.27;;;7.43;;
50379;SDS011;37474;59.468;18.040;2022-12-18T13:07:00;15.60;;;7.53;;
50379;SDS011;37474;59.468;18.040;2022-12-18T13:09:32;19.23;;;7.83;;
50379;SDS011;37474;59.468;18.040;2022-12-18T13:12:02;17.58;;;7.65;;
50379;SDS011;37474;59.468;18.040;2022-12-18T13:14:49;15.10;;;7.10;;
50379;SDS011;37474;59.468;18.040;2022-12-18T13:17:28;14.57;;;7.47;;
50379;SDS011;37474;59.468;18.040;2022-12-18T13:20:06;17.58;;;7.70;;
50379;SDS011;37474;59.468;18.040;2022-12-18T13:22:38;15.93;;;7.63;;
50379;SDS011;37474;59.468;18.040;2022-12-18T13:25:30;12.93;;;6.63;;
50379;SDS011;37474;59.468;18.040;2022-12-18T13:28:05;11.93;;;6.50;;
50379;SDS011;37474;59.468;18.040;2022-12-18T13:36:52;17.30;;;6.40;;
50379;SDS011;37474;59.468;18.040;2022-12-18T13:39:31;14.25;;;6.78;;
50379;SDS011;37474;59.468;18.040;2022-12-18T13:45:38;12.40;;;6.20;;
50379;SDS011;37474;59.468;18.040;2022-12-18T13:48:22;16.03;;;6.43;;
50379;SDS011;37474;59.468;18.040;2022-12-18T13:50:56;10.30;;;5.82;;
50379;SDS011;37474;59.468;18.040;2022-12-18T13:53:28;15.43;;;6.90;;
50379;SDS011;37474;59.468;18.040;2022-12-18T13:55:59;14.30;;;6.27;;
50379;SDS011;37474;59.468;18.040;2022-12-18T13:58:29;15.48;;;6.32;;
50379;SDS011;37474;59.468;18.040;2022-12-18T14:00:57;16.47;;;6.23;;
50379;SDS011;37474;59.468;18.040;2022-12-18T14:03:26;13.67;;;6.20;;
50379;SDS011;37474;59.468;18.040;2022-12-18T14:06:01;13.60;;;6.53;;
50379;SDS011;37474;59.468;18.040;2022-12-18T14:08:33;15.30;;;5.67;;
50379;SDS011;37474;59.468;18.040;2022-12-18T14:11:05;15.00;;;5.90;;
50379;SDS011;37474;59.468;18.040;2022-12-18T14:13:37;11.40;;;5.47;;
50379;SDS011;37474;59.468;18.040;2022-12-18T14:16:11;13.03;;;6.07;;
50379;SDS011;37474;59.468;18.040;2022-12-18T14:18:44;13.87;;;5.37;;
50379;SDS011;37474;59.468;18.040;2022-12-18T14:21:18;13.57;;;5.37;;
50379;SDS011;37474;59.468;18.040;2022-12-18T14:23:49;14.57;;;5.70;;
50379;SDS011;37474;59.468;18.040;2022-12-18T14:26:32;12.13;;;5.30;;
50379;SDS011;37474;59.468;18.040;2022-12-18T14:29:01;17.13;;;5.60;;
50379;SDS011;37474;59.468;18.040;2022-12-18T14:31:50;13.87;;;5.80;;
50379;SDS011;37474;59.468;18.040;2022-12-18T14:34:40;15.90;;;5.10;;
50379;SDS011;37474;59.468;18.040;2022-12-18T14:37:10;14.40;;;4.90;;
50379;SDS011;37474;59.468;18.040;2022-12-18T14:39:39;15.53;;;5.43;;
50379;SDS011;37474;59.468;18.040;2022-12-18T14:42:10;10.20;;;4.00;;
50379;SDS011;37474;59.468;18.040;2022-12-18T14:44:39;11.13;;;4.70;;
50379;SDS011;37474;59.468;18.040;2022-12-18T14:47:27;10.90;;;4.80;;
50379;SDS011;37474;59.468;18.040;2022-12-18T14:49:55;14.17;;;5.33;;
50379;SDS011;37474;59.468;18.040;2022-12-18T14:52:25;11.60;;;4.80;;
50379;SDS011;37474;59.468;18.040;2022-12-18T14:54:57;12.07;;;4.67;;
50379;SDS011;37474;59.468;18.040;2022-12-18T14:57:25;14.30;;;4.40;;
50379;SDS011;37474;59.468;18.040;2022-12-18T15:00:03;13.17;;;4.83;;